YLL weather

Lloydminster Airport
Lloydminster, Alberta, Canada

Public forecast

Using degrees Celsius for public forecast. Weather courtesy of forecast.io.

METAR (pilot weather report)

Retrieved 2019/04/22 19:00 UTC (35 minutes ago):

CYLL 221900Z 20013KT 15SM FEW240 BKN270 18/M02 A2987 RMK CI1CI7 CI TR SLP131 DENSITY ALT 3100FT

TAF (pilot weather forecast)

Retrieved 2019/04/22 18:39 UTC (56 minutes ago):

TAF TAF CYLL 221738Z 2218/2306 19015G25KT P6SM FEW250 FM222300 21010KT P6SM BKN100 FM230500 30008KT P6SM SCT100 RMK NXT FCST BY 230000Z